Station Historical Data
Daily Summary for January 12, 2017 Units:  Metric    English   Both
« Previous Day
Next Day »
Daily Weekly Monthly Yearly Custom
  High: Low: Average:
Temperature: 14.1 °C 0.6 °C 7.1 °C
Dew Point: 11.4 °C -1.6 °C 5.5 °C
Humidity: 95% 82% 90%
Wind Speed: 29km/h 0km/h 10.1km/h
Wind Gust: 43.5km/h - -
Wind- - SW
Pressure: 1024.6 hPa 1005.6 hPa -
Precipitation: 0 mm    
Historical Graphs
 
 
Tabular Data for January 12, 2017
Time Temperature Dew Point Pressure Wind Wind Speed Wind Gust Humidity Rainfall Rate (Hourly)
00:04 9.9 °C 7.6 °C 1008 hPa South 12.9 km/h 25.7 km/h 85% 0.76 mm
00:09 10.1 °C 7.5 °C 1008 hPa SSW 11.3 km/h 20.9 km/h 84% 0.76 mm
00:14 10.1 °C 7.7 °C 1008 hPa SSW 11.3 km/h 24.1 km/h 85% 0.76 mm
00:19 10.1 °C 7.7 °C 1007.7 hPa South 12.9 km/h 24.1 km/h 85% 0.76 mm
00:24 10.2 °C 7.8 °C 1007.7 hPa South 12.9 km/h 30.6 km/h 85% 0.76 mm
00:29 10.2 °C 7.8 °C 1007.7 hPa South 14.5 km/h 30.6 km/h 85% 0.76 mm
00:34 10.3 °C 7.9 °C 1007.3 hPa SSW 11.3 km/h 30.6 km/h 85% 0.51 mm
00:39 10.6 °C 7.9 °C 1007 hPa SW 16.1 km/h 30.6 km/h 84% 0.25 mm
00:44 10.7 °C 8.1 °C 1007 hPa South 14.5 km/h 20.9 km/h 84% 0 mm
00:49 10.8 °C 8.2 °C 1007 hPa South 12.9 km/h 29 km/h 84% 0 mm
00:54 11.1 °C 8.5 °C 1006.7 hPa South 14.5 km/h 29 km/h 84% 0 mm
00:59 11.2 °C 8.6 °C 1006.7 hPa SW 12.9 km/h 27.4 km/h 84% 0 mm
01:04 11.4 °C 8.8 °C 1006.7 hPa SSE 17.7 km/h 27.4 km/h 84% 0 mm
01:09 11.5 °C 8.7 °C 1006.3 hPa South 9.7 km/h 25.7 km/h 83% 0 mm
01:14 11.7 °C 9.1 °C 1006.3 hPa SSW 11.3 km/h 35.4 km/h 84% 0 mm
01:19 11.8 °C 9 °C 1006.3 hPa SSE 8 km/h 33.8 km/h 83% 0 mm
01:24 11.8 °C 9.2 °C 1006.3 hPa SSW 14.5 km/h 33.8 km/h 84% 0 mm
01:29 11.9 °C 9.3 °C 1006.3 hPa SSW 14.5 km/h 35.4 km/h 84% 0.25 mm
01:34 11.8 °C 9.3 °C 1006.3 hPa SSW 12.9 km/h 35.4 km/h 85% 0.25 mm
01:39 11.8 °C 9.6 °C 1006.3 hPa SSW 14.5 km/h 30.6 km/h 86% 0.25 mm
01:44 11.9 °C 9.5 °C 1006 hPa SSW 16.1 km/h 38.6 km/h 85% 0.51 mm
01:49 12.2 °C 9.7 °C 1006 hPa South 16.1 km/h 32.2 km/h 85% 0.51 mm
01:54 12.2 °C 9.7 °C 1006 hPa South 12.9 km/h 38.6 km/h 85% 0.51 mm
01:59 12.2 °C 9.9 °C 1006 hPa SSW 16.1 km/h 38.6 km/h 86% 0.51 mm
02:04 12.2 °C 9.9 °C 1006 hPa SSW 17.7 km/h 35.4 km/h 86% 0.51 mm
02:09 12.2 °C 9.9 °C 1006 hPa SSW 16.1 km/h 35.4 km/h 86% 0.51 mm
02:14 12.2 °C 9.9 °C 1006 hPa South 11.3 km/h 27.4 km/h 86% 0.51 mm
02:19 12.3 °C 9.8 °C 1005.6 hPa SSW 16.1 km/h 30.6 km/h 85% 0.51 mm
02:24 12.3 °C 9.8 °C 1006 hPa South 17.7 km/h 27.4 km/h 85% 0.51 mm
02:29 12.4 °C 9.9 °C 1005.6 hPa SSW 11.3 km/h 30.6 km/h 85% 0.25 mm
02:34 12.5 °C 9.9 °C 1005.6 hPa SSW 16.1 km/h 35.4 km/h 84% 0.25 mm
02:39 12.5 °C 9.9 °C 1006 hPa SSW 14.5 km/h 35.4 km/h 84% 0.25 mm
02:44 12.6 °C 9.9 °C 1006 hPa SSW 12.9 km/h 29 km/h 84% 0 mm
02:49 12.7 °C 10.1 °C 1005.6 hPa SSW 12.9 km/h 29 km/h 84% 0 mm
02:54 12.8 °C 10.2 °C 1005.6 hPa South 11.3 km/h 25.7 km/h 84% 0 mm
02:59 12.9 °C 10.1 °C 1005.6 hPa SSW 14.5 km/h 27.4 km/h 83% 0 mm
03:04 13.1 °C 10.3 °C 1005.6 hPa SSW 8 km/h 27.4 km/h 83% 0 mm
03:09 13.3 °C 10.5 °C 1005.6 hPa SSW 16.1 km/h 38.6 km/h 83% 0 mm
03:14 13.4 °C 10.6 °C 1005.6 hPa SSW 16.1 km/h 38.6 km/h 83% 0 mm
03:19 13.4 °C 10.6 °C 1005.6 hPa SSW 17.7 km/h 37 km/h 83% 0 mm
03:24 13.4 °C 10.6 °C 1005.6 hPa SW 6.4 km/h 30.6 km/h 83% 0 mm
03:29 13.4 °C 10.6 °C 1006 hPa South 16.1 km/h 27.4 km/h 83% 0 mm
03:34 13.5 °C 10.7 °C 1005.6 hPa SW 16.1 km/h 25.7 km/h 83% 0 mm
03:39 13.6 °C 10.7 °C 1005.6 hPa SSW 14.5 km/h 30.6 km/h 83% 0 mm
03:44 13.7 °C 10.8 °C 1006 hPa SSW 14.5 km/h 30.6 km/h 83% 0 mm
03:49 13.7 °C 10.7 °C 1006 hPa SSW 14.5 km/h 29 km/h 82% 0 mm
03:54 13.8 °C 10.8 °C 1006 hPa SW 8 km/h 30.6 km/h 82% 0 mm
03:59 13.8 °C 10.8 °C 1006 hPa SW 19.3 km/h 29 km/h 82% 0 mm
04:04 13.8 °C 10.8 °C 1006 hPa SW 16.1 km/h 27.4 km/h 82% 0 mm
04:09 13.8 °C 10.8 °C 1006 hPa SW 12.9 km/h 27.4 km/h 82% 0 mm
04:14 13.8 °C 10.8 °C 1006 hPa SW 12.9 km/h 22.5 km/h 82% 0 mm
04:19 13.8 °C 10.8 °C 1005.6 hPa SSW 12.9 km/h 29 km/h 82% 0 mm
04:24 13.8 °C 10.8 °C 1005.6 hPa SW 14.5 km/h 24.1 km/h 82% 0 mm
04:29 13.9 °C 10.9 °C 1005.6 hPa WSW 22.5 km/h 33.8 km/h 82% 0 mm
04:34 14 °C 11.2 °C 1005.6 hPa WSW 22.5 km/h 30.6 km/h 83% 0.25 mm
04:39 14.1 °C 11.4 °C 1005.6 hPa SW 25.7 km/h 43.5 km/h 84% 0.51 mm
04:44 13.9 °C 11.3 °C 1005.6 hPa South 16.1 km/h 32.2 km/h 84% 0.76 mm
04:49 13.8 °C 11.3 °C 1005.6 hPa SSW 16.1 km/h 32.2 km/h 85% 0.76 mm
04:54 13.8 °C 11.3 °C 1006 hPa SSW 16.1 km/h 33.8 km/h 85% 0.76 mm
04:59 13.8 °C 11.3 °C 1006.3 hPa SW 17.7 km/h 35.4 km/h 85% 0.76 mm
05:04 13.7 °C 11.4 °C 1006.3 hPa SW 16.1 km/h 40.2 km/h 86% 0.76 mm
05:09 13.6 °C 11.1 °C 1006.7 hPa SW 16.1 km/h 40.2 km/h 85% 0.76 mm
05:14 13.7 °C 11.1 °C 1006.7 hPa SW 17.7 km/h 40.2 km/h 84% 0.76 mm
05:19 13.8 °C 11.1 °C 1006.3 hPa WSW 14.5 km/h 35.4 km/h 84% 0.76 mm
05:24 13.8 °C 11.1 °C 1006.7 hPa WSW 20.9 km/h 33.8 km/h 84% 1.02 mm
05:29 13.7 °C 11.1 °C 1006.7 hPa SW 17.7 km/h 37 km/h 84% 1.02 mm
05:34 13.6 °C 10.9 °C 1006.7 hPa SSE 11.3 km/h 33.8 km/h 84% 0.76 mm
05:39 13.4 °C 10.9 °C 1007 hPa South 11.3 km/h 35.4 km/h 85% 0.51 mm
05:44 13.3 °C 10.9 °C 1006.7 hPa SW 11.3 km/h 22.5 km/h 85% 0.25 mm
05:49 13.4 °C 11.2 °C 1007 hPa SW 16.1 km/h 37 km/h 86% 0.25 mm
05:54 13.4 °C 10.8 °C 1007 hPa SW 17.7 km/h 25.7 km/h 84% 0.25 mm
05:59 13.2 °C 10.7 °C 1007 hPa SW 16.1 km/h 29 km/h 85% 0.25 mm
06:04 13 °C 10.6 °C 1007 hPa SW 14.5 km/h 29 km/h 85% 0.25 mm
06:09 12.8 °C 10.5 °C 1007 hPa SW 12.9 km/h 27.4 km/h 86% 0.25 mm
06:14 12.6 °C 10.5 °C 1007.3 hPa WSW 14.5 km/h 32.2 km/h 87% 0.25 mm
06:19 12.6 °C 10.5 °C 1007.3 hPa SW 16.1 km/h 32.2 km/h 87% 0.25 mm
06:24 12.5 °C 10.4 °C 1007.3 hPa WSW 12.9 km/h 29 km/h 87% 0 mm
06:29 12.3 °C 10.2 °C 1007.3 hPa SSW 14.5 km/h 25.7 km/h 87% 0 mm
06:34 11.9 °C 9.8 °C 1007.3 hPa SW 14.5 km/h 30.6 km/h 87% 0 mm
06:39 11.8 °C 9.8 °C 1007.3 hPa SW 8 km/h 27.4 km/h 88% 0 mm
06:44 11.8 °C 9.9 °C 1007.7 hPa SSW 19.3 km/h 24.1 km/h 88% 0 mm
06:49 11.8 °C 9.8 °C 1007.7 hPa WSW 14.5 km/h 25.7 km/h 88% 0 mm
06:54 11.8 °C 9.7 °C 1008 hPa WSW 8 km/h 27.4 km/h 87% 0 mm
06:59 11.8 °C 9.7 °C 1008 hPa SW 6.4 km/h 25.7 km/h 87% 0 mm
07:04 11.9 °C 9.8 °C 1008 hPa SW 12.9 km/h 25.7 km/h 87% 0 mm
07:09 12 °C 9.7 °C 1007.7 hPa SW 14.5 km/h 30.6 km/h 86% 0 mm
07:14 11.9 °C 9.7 °C 1008 hPa SW 16.1 km/h 30.6 km/h 86% 0 mm
07:19 11.8 °C 9.5 °C 1008 hPa SW 16.1 km/h 29 km/h 86% 0 mm
07:24 11.6 °C 9.3 °C 1008 hPa South 8 km/h 32.2 km/h 86% 0 mm
07:29 11.6 °C 9.4 °C 1008 hPa SSE 8 km/h 22.5 km/h 87% 0 mm
07:34 11.6 °C 9.4 °C 1008 hPa WSW 6.4 km/h 24.1 km/h 87% 0 mm
07:39 11.6 °C 9.6 °C 1008.4 hPa SSW 11.3 km/h 30.6 km/h 88% 0 mm
07:44 11.8 °C 10 °C 1008.4 hPa NW 29 km/h 33.8 km/h 89% 0 mm
07:49 11.8 °C 10 °C 1008.4 hPa WNW 20.9 km/h 30.6 km/h 89% 0 mm
07:54 11.8 °C 10 °C 1008.4 hPa West 11.3 km/h 30.6 km/h 89% 0 mm
07:59 11.8 °C 10.2 °C 1008.7 hPa WSW 14.5 km/h 27.4 km/h 90% 0 mm
08:04 11.7 °C 9.9 °C 1008.7 hPa WSW 16.1 km/h 30.6 km/h 89% 0 mm
08:09 10.9 °C 9.1 °C 1009 hPa WSW 16.1 km/h 30.6 km/h 88% 0 mm
08:14 10.4 °C 8.8 °C 1008.7 hPa West 14.5 km/h 29 km/h 90% 0 mm
08:19 10.3 °C 8.9 °C 1009 hPa WSW 14.5 km/h 27.4 km/h 91% 0 mm
08:24 10.4 °C 9.2 °C 1009 hPa WSW 12.9 km/h 29 km/h 92% 0 mm
08:29 10.4 °C 9.2 °C 1009.4 hPa WSW 11.3 km/h 29 km/h 92% 0 mm
08:34 10.4 °C 9.2 °C 1009.4 hPa SW 14.5 km/h 19.3 km/h 92% 0 mm
08:39 10.1 °C 8.9 °C 1009.7 hPa West 17.7 km/h 22.5 km/h 92% 0 mm
08:44 9.8 °C 8.6 °C 1009.4 hPa SW 14.5 km/h 19.3 km/h 92% 0 mm
08:49 9.5 °C 8.3 °C 1009.7 hPa WSW 8 km/h 17.7 km/h 92% 0 mm
08:54 9.3 °C 8.1 °C 1010 hPa WSW 11.3 km/h 16.1 km/h 92% 0 mm
08:59 9.1 °C 8 °C 1010 hPa West 6.4 km/h 17.7 km/h 93% 0 mm
09:04 8.8 °C 7.8 °C 1009.7 hPa West 11.3 km/h 19.3 km/h 93% 0 mm
09:09 8.8 °C 7.7 °C 1009.7 hPa WSW 9.7 km/h 19.3 km/h 93% 0 mm
09:14 8.6 °C 7.6 °C 1010 hPa WSW 8 km/h 14.5 km/h 93% 0 mm
09:19 8.6 °C 7.5 °C 1009.7 hPa SW 6.4 km/h 12.9 km/h 93% 0 mm
09:24 8.5 °C 7.4 °C 1010 hPa SW 6.4 km/h 9.7 km/h 93% 0 mm
09:29 8.4 °C 7.6 °C 1010 hPa SW 6.4 km/h 9.7 km/h 94% 0 mm
09:34 8.2 °C 7.1 °C 1010 hPa SSW 4.8 km/h 11.3 km/h 93% 0 mm
09:39 7.7 °C 6.6 °C 1010 hPa SSW 4.8 km/h 11.3 km/h 93% 0 mm
09:44 7.4 °C 6.3 °C 1010.4 hPa South 4.8 km/h 14.5 km/h 93% 0 mm
09:49 6.9 °C 5.9 °C 1010.7 hPa SW 6.4 km/h 12.9 km/h 93% 0 mm
09:54 6.3 °C 5.3 °C 1010.4 hPa South 4.8 km/h 11.3 km/h 93% 0 mm
09:59 6.1 °C 5 °C 1010.4 hPa SSE 4.8 km/h 9.7 km/h 93% 0 mm
10:04 5.8 °C 4.9 °C 1010.4 hPa SSW 6.4 km/h 11.3 km/h 94% 0 mm
10:09 5.7 °C 4.8 °C 1010.4 hPa South 1.6 km/h 11.3 km/h 94% 0 mm
10:14 5.7 °C 4.8 °C 1010.7 hPa SSW 6.4 km/h 12.9 km/h 94% 0 mm
10:19 5.6 °C 4.7 °C 1010.7 hPa SSW 6.4 km/h 14.5 km/h 94% 0 mm
10:24 5.4 °C 4.6 °C 1010.7 hPa SSW 8 km/h 14.5 km/h 94% 0 mm
10:29 5.3 °C 4.4 °C 1010.7 hPa SSW 6.4 km/h 14.5 km/h 94% 0 mm
10:34 5.3 °C 4.4 °C 1010.7 hPa SSW 6.4 km/h 12.9 km/h 94% 0 mm
10:39 5.4 °C 4.7 °C 1010.7 hPa SSW 6.4 km/h 12.9 km/h 95% 0 mm
10:44 5.4 °C 4.7 °C 1010.7 hPa SW 8 km/h 11.3 km/h 95% 0 mm
10:49 5.5 °C 4.8 °C 1010.7 hPa SSW 4.8 km/h 11.3 km/h 95% 0 mm
10:54 5.7 °C 4.9 °C 1010.4 hPa South 4.8 km/h 8 km/h 95% 0 mm
10:59 5.8 °C 5.1 °C 1010.7 hPa WSW 4.8 km/h 11.3 km/h 95% 0 mm
11:04 5.9 °C 5.2 °C 1010.7 hPa West 4.8 km/h 8 km/h 95% 0 mm
11:09 6.1 °C 5.3 °C 1010.4 hPa West 4.8 km/h 8 km/h 95% 0 mm
11:14 6.2 °C 5.4 °C 1010.4 hPa West 3.2 km/h 8 km/h 95% 0 mm
11:19 6.2 °C 5.5 °C 1010.4 hPa WSW 4.8 km/h 9.7 km/h 95% 0 mm
11:24 6.3 °C 5.6 °C 1010.4 hPa WSW 6.4 km/h 11.3 km/h 95% 0 mm
11:29 6.3 °C 5.6 °C 1010 hPa West 6.4 km/h 11.3 km/h 95% 0 mm
11:34 6.4 °C 5.7 °C 1010 hPa West 4.8 km/h 11.3 km/h 95% 0 mm
11:39 6.4 °C 5.7 °C 1009.7 hPa West 4.8 km/h 9.7 km/h 95% 0 mm
11:44 6.4 °C 5.7 °C 1009.7 hPa West 6.4 km/h 12.9 km/h 95% 0 mm
11:49 6.4 °C 5.7 °C 1010 hPa WSW 8 km/h 14.5 km/h 95% 0 mm
11:54 6.3 °C 5.6 °C 1010 hPa West 4.8 km/h 12.9 km/h 95% 0 mm
11:59 6.3 °C 5.6 °C 1010 hPa WNW 8 km/h 12.9 km/h 95% 0 mm
12:04 6.3 °C 5.6 °C 1010 hPa SW 9.7 km/h 11.3 km/h 95% 0.25 mm
12:09 6.3 °C 5.6 °C 1010 hPa WSW 8 km/h 14.5 km/h 95% 0.76 mm
12:14 6.2 °C 5.4 °C 1009.7 hPa WSW 12.9 km/h 12.9 km/h 95% 1.27 mm
12:19 6.2 °C 5.4 °C 1009.7 hPa SW 6.4 km/h 12.9 km/h 95% 2.03 mm
12:24 6.2 °C 5.4 °C 1009.7 hPa WSW 6.4 km/h 12.9 km/h 95% 2.54 mm
12:29 6.1 °C 5.4 °C 1010 hPa WSW 6.4 km/h 12.9 km/h 95% 3.3 mm
12:34 6.1 °C 5.3 °C 1010 hPa West 6.4 km/h 14.5 km/h 95% 4.06 mm
12:39 5.9 °C 5.2 °C 1010 hPa West 6.4 km/h 14.5 km/h 95% 4.57 mm
12:44 5.9 °C 5.2 °C 1010 hPa West 6.4 km/h 14.5 km/h 95% 5.33 mm
12:49 5.9 °C 5.2 °C 1010.4 hPa WNW 6.4 km/h 12.9 km/h 95% 5.84 mm
12:54 5.8 °C 5.1 °C 1010.4 hPa WNW 14.5 km/h 17.7 km/h 95% 6.1 mm
12:59 5.6 °C 4.8 °C 1010.4 hPa NW 4.8 km/h 17.7 km/h 95% 6.1 mm
13:04 5.3 °C 4.6 °C 1010.4 hPa NNW 8 km/h 16.1 km/h 95% 5.84 mm
13:09 5.1 °C 4.3 °C 1010 hPa North 4.8 km/h 11.3 km/h 95% 5.33 mm
13:14 4.9 °C 4.2 °C 1010 hPa NNE 6.4 km/h 14.5 km/h 95% 4.83 mm
13:19 4.8 °C 4.1 °C 1010 hPa NNE 3.2 km/h 12.9 km/h 95% 4.06 mm
13:24 4.8 °C 4.1 °C 1010 hPa NNW 1.6 km/h 8 km/h 95% 3.81 mm
13:29 4.6 °C 3.7 °C 1009.7 hPa North 4.8 km/h 8 km/h 94% 3.05 mm
13:34 4.6 °C 3.7 °C 1010 hPa North 3.2 km/h 8 km/h 94% 2.29 mm
13:39 4.6 °C 3.7 °C 1010 hPa North 1.6 km/h 6.4 km/h 94% 2.03 mm
13:44 4.6 °C 3.9 °C 1009.4 hPa SSE 1.6 km/h 8 km/h 95% 1.52 mm
13:49 4.7 °C 3.9 °C 1009.7 hPa ESE 3.2 km/h 8 km/h 95% 1.27 mm
13:54 4.7 °C 3.9 °C 1010 hPa ENE 1.6 km/h 3.2 km/h 95% 1.27 mm
13:59 4.8 °C 4.1 °C 1009.7 hPa SSE 1.6 km/h 4.8 km/h 95% 1.27 mm
14:04 4.8 °C 3.9 °C 1010 hPa SE 3.2 km/h 4.8 km/h 94% 1.27 mm
14:09 4.9 °C 4 °C 1010.4 hPa South 3.2 km/h 4.8 km/h 94% 1.27 mm
14:14 4.9 °C 4.1 °C 1010 hPa SSE 8 km/h 11.3 km/h 94% 1.27 mm
14:19 5.1 °C 4.2 °C 1010.7 hPa SE 3.2 km/h 11.3 km/h 94% 1.27 mm
14:24 5.2 °C 4.3 °C 1010.4 hPa SSW 3.2 km/h 11.3 km/h 94% 1.02 mm
14:29 5.2 °C 4.3 °C 1010 hPa SW 1.6 km/h 6.4 km/h 94% 1.02 mm
14:34 5.3 °C 4.4 °C 1010.4 hPa SSW 3.2 km/h 6.4 km/h 94% 1.02 mm
14:39 5.5 °C 4.6 °C 1010.4 hPa SW 1.6 km/h 4.8 km/h 94% 0.76 mm
14:44 5.5 °C 4.6 °C 1010.4 hPa Calm   3.2 km/h 94% 0.51 mm
14:49 5.5 °C 4.6 °C 1010.7 hPa Calm   3.2 km/h 94% 0.25 mm
14:54 5.5 °C 4.6 °C 1010.7 hPa Calm   4.8 km/h 94% 0 mm
14:59 5.6 °C 4.7 °C 1010.7 hPa SW 1.6 km/h 4.8 km/h 94% 0 mm
15:04 5.6 °C 4.7 °C 1010.7 hPa SSW 4.8 km/h 6.4 km/h 94% 0 mm
15:09 5.7 °C 4.8 °C 1011.1 hPa SSE 3.2 km/h 4.8 km/h 94% 0 mm
15:14 5.8 °C 4.9 °C 1010.7 hPa Calm   6.4 km/h 94% 0 mm
15:19 5.9 °C 5 °C 1011.4 hPa WSW 3.2 km/h 8 km/h 94% 0 mm
15:24 5.9 °C 5.1 °C 1011.4 hPa SW 4.8 km/h 8 km/h 94% 0 mm
15:29 5.8 °C 4.9 °C 1011.1 hPa SW 6.4 km/h 9.7 km/h 94% 0 mm
15:34 5.7 °C 4.7 °C 1012.1 hPa West 4.8 km/h 9.7 km/h 93% 0 mm
15:39 5.4 °C 4.4 °C 1012.1 hPa WSW 12.9 km/h 12.9 km/h 93% 0 mm
15:44 5.2 °C 4.1 °C 1012.1 hPa WSW 6.4 km/h 12.9 km/h 93% 0 mm
15:49 5.1 °C 4.2 °C 1012.1 hPa WSW 6.4 km/h 12.9 km/h 94% 0 mm
15:54 4.9 °C 3.9 °C 1011.7 hPa WSW 6.4 km/h 12.9 km/h 93% 0 mm
15:59 4.6 °C 3.6 °C 1012.1 hPa WSW 8 km/h 16.1 km/h 93% 0 mm
16:04 4.4 °C 3.4 °C 1012.8 hPa WSW 9.7 km/h 16.1 km/h 93% 0 mm
16:09 4.4 °C 3.3 °C 1012.8 hPa WSW 8 km/h 14.5 km/h 93% 0 mm
16:14 4.3 °C 3.4 °C 1012.8 hPa WSW 6.4 km/h 12.9 km/h 94% 0 mm
16:24 4.2 °C 3.3 °C 1013.1 hPa West 9.7 km/h 16.1 km/h 94% 0 mm
16:29 4.1 °C 3.2 °C 1013.1 hPa WSW 6.4 km/h 14.5 km/h 94% 0 mm
16:34 4 °C 3.1 °C 1013.4 hPa SW 11.3 km/h 19.3 km/h 94% 0 mm
16:39 3.9 °C 3 °C 1013.4 hPa West 8 km/h 14.5 km/h 94% 0 mm
16:44 3.8 °C 2.9 °C 1013.8 hPa SW 12.9 km/h 16.1 km/h 94% 0 mm
16:49 3.7 °C 2.8 °C 1013.8 hPa WSW 8 km/h 16.1 km/h 94% 0 mm
16:54 3.7 °C 2.8 °C 1014.1 hPa WSW 8 km/h 16.1 km/h 94% 0 mm
16:59 3.7 °C 2.8 °C 1014.4 hPa WSW 8 km/h 16.1 km/h 94% 0 mm
17:04 3.7 °C 2.8 °C 1014.8 hPa WSW 8 km/h 14.5 km/h 94% 0 mm
17:09 3.6 °C 2.7 °C 1014.4 hPa WSW 8 km/h 16.1 km/h 94% 0 mm
17:14 3.6 °C 2.7 °C 1014.4 hPa WSW 8 km/h 16.1 km/h 94% 0 mm
17:19 3.6 °C 2.7 °C 1015.1 hPa WSW 8 km/h 14.5 km/h 94% 0 mm
17:24 3.5 °C 2.6 °C 1015.1 hPa SW 6.4 km/h 12.9 km/h 94% 0 mm
17:29 3.4 °C 2.6 °C 1015.5 hPa West 6.4 km/h 14.5 km/h 94% 0 mm
17:34 3.4 °C 2.7 °C 1015.1 hPa SW 6.4 km/h 12.9 km/h 95% 0 mm
17:39 3.4 °C 2.7 °C 1015.5 hPa West 6.4 km/h 17.7 km/h 95% 0 mm
17:44 3.4 °C 2.7 °C 1015.8 hPa SW 9.7 km/h 16.1 km/h 95% 0 mm
17:49 3.5 °C 2.6 °C 1015.8 hPa WSW 4.8 km/h 12.9 km/h 94% 0 mm
17:54 3.6 °C 2.7 °C 1016.1 hPa WSW 8 km/h 14.5 km/h 94% 0 mm
17:59 3.6 °C 2.7 °C 1016.1 hPa WSW 8 km/h 14.5 km/h 94% 0 mm
18:04 3.6 °C 2.7 °C 1016.1 hPa WSW 8 km/h 16.1 km/h 94% 0 mm
18:09 3.7 °C 2.8 °C 1016.1 hPa WSW 8 km/h 16.1 km/h 94% 0 mm
18:14 3.6 °C 2.7 °C 1016.5 hPa WSW 8 km/h 17.7 km/h 94% 0 mm
18:19 3.6 °C 2.6 °C 1016.8 hPa WSW 8 km/h 19.3 km/h 93% 0 mm
18:24 3.6 °C 2.6 °C 1017.2 hPa West 6.4 km/h 12.9 km/h 93% 0 mm
18:29 3.5 °C 2.5 °C 1017.2 hPa WSW 8 km/h 16.1 km/h 93% 0 mm
18:34 3.3 °C 2.3 °C 1017.2 hPa WSW 9.7 km/h 14.5 km/h 93% 0 mm
18:39 3.3 °C 2.1 °C 1017.5 hPa West 11.3 km/h 17.7 km/h 92% 0 mm
18:44 3.2 °C 2.2 °C 1017.5 hPa SSW 6.4 km/h 17.7 km/h 93% 0 mm
18:49 3.1 °C 1.9 °C 1017.8 hPa West 11.3 km/h 20.9 km/h 92% 0 mm
18:54 3.1 °C 1.9 °C 1017.8 hPa West 8 km/h 19.3 km/h 92% 0 mm
18:59 2.9 °C 1.8 °C 1018.2 hPa WSW 11.3 km/h 20.9 km/h 92% 0 mm
19:04 2.8 °C 1.7 °C 1018.2 hPa West 11.3 km/h 17.7 km/h 92% 0 mm
19:09 2.8 °C 1.7 °C 1018.2 hPa WSW 9.7 km/h 22.5 km/h 92% 0 mm
19:14 2.8 °C 1.7 °C 1018.5 hPa WSW 9.7 km/h 22.5 km/h 92% 0 mm
19:19 2.7 °C 1.6 °C 1018.8 hPa WSW 9.7 km/h 20.9 km/h 92% 0 mm
19:24 2.7 °C 1.5 °C 1018.8 hPa WSW 9.7 km/h 20.9 km/h 92% 0 mm
19:29 2.6 °C 1.4 °C 1018.8 hPa West 14.5 km/h 19.3 km/h 92% 0 mm
19:34 2.5 °C 1.3 °C 1019.2 hPa SW 6.4 km/h 17.7 km/h 92% 0 mm
19:39 2.5 °C 1.3 °C 1019.2 hPa WSW 11.3 km/h 19.3 km/h 92% 0 mm
19:44 2.5 °C 1.3 °C 1019.2 hPa West 9.7 km/h 12.9 km/h 92% 0 mm
19:49 2.5 °C 1.3 °C 1019.5 hPa WSW 8 km/h 14.5 km/h 92% 0 mm
19:54 2.6 °C 1.4 °C 1019.5 hPa WSW 8 km/h 16.1 km/h 92% 0 mm
19:59 2.6 °C 1.4 °C 1019.9 hPa West 11.3 km/h 16.1 km/h 92% 0 mm
20:04 2.6 °C 1.3 °C 1020.2 hPa WSW 8 km/h 16.1 km/h 91% 0 mm
20:09 2.6 °C 1.3 °C 1020.2 hPa WSW 8 km/h 16.1 km/h 91% 0 mm
20:14 2.6 °C 1.3 °C 1020.2 hPa WSW 8 km/h 16.1 km/h 91% 0 mm
20:19 2.6 °C 1.3 °C 1020.5 hPa WSW 8 km/h 16.1 km/h 91% 0 mm
20:24 2.6 °C 1.1 °C 1020.9 hPa West 8 km/h 16.1 km/h 90% 0 mm
20:29 2.6 °C 1.1 °C 1020.9 hPa West 8 km/h 16.1 km/h 90% 0 mm
20:34 2.6 °C 0.9 °C 1020.9 hPa West 8 km/h 19.3 km/h 89% 0 mm
20:39 2.6 °C 0.9 °C 1021.2 hPa WSW 8 km/h 20.9 km/h 89% 0 mm
20:44 2.4 °C 0.8 °C 1021.2 hPa WSW 14.5 km/h 19.3 km/h 89% 0 mm
20:49 2.4 °C 0.6 °C 1021.2 hPa West 11.3 km/h 20.9 km/h 88% 0 mm
20:54 2.3 °C 0.5 °C 1021.2 hPa WNW 12.9 km/h 19.3 km/h 88% 0 mm
20:59 2.2 °C 0.3 °C 1021.6 hPa West 20.9 km/h 20.9 km/h 87% 0 mm
21:04 2.2 °C 0.2 °C 1021.6 hPa WNW 6.4 km/h 29 km/h 87% 0 mm
21:09 2.1 °C 0.3 °C 1021.9 hPa West 11.3 km/h 29 km/h 88% 0 mm
21:14 2.1 °C 0.3 °C 1021.9 hPa WSW 19.3 km/h 19.3 km/h 88% 0 mm
21:19 2 °C 0.1 °C 1022.2 hPa West 9.7 km/h 19.3 km/h 87% 0 mm
21:24 1.9 °C 0 °C 1022.2 hPa West 9.7 km/h 19.3 km/h 87% 0 mm
21:29 1.8 °C -0.1 °C 1022.2 hPa West 9.7 km/h 22.5 km/h 87% 0 mm
21:34 1.7 °C -0.2 °C 1022.6 hPa West 9.7 km/h 22.5 km/h 87% 0 mm
21:39 1.7 °C -0.1 °C 1022.6 hPa WSW 6.4 km/h 17.7 km/h 88% 0 mm
21:44 1.6 °C -0.2 °C 1022.6 hPa West 9.7 km/h 20.9 km/h 88% 0 mm
21:49 1.5 °C -0.3 °C 1022.9 hPa West 9.7 km/h 20.9 km/h 88% 0 mm
21:54 1.5 °C -0.3 °C 1022.9 hPa WSW 6.4 km/h 17.7 km/h 88% 0 mm
21:59 1.4 °C -0.3 °C 1023.2 hPa WSW 9.7 km/h 20.9 km/h 88% 0 mm
22:04 1.4 °C -0.3 °C 1023.2 hPa West 8 km/h 19.3 km/h 88% 0 mm
22:09 1.4 °C -0.6 °C 1022.9 hPa SW 8 km/h 19.3 km/h 87% 0 mm
22:14 1.3 °C -0.8 °C 1023.2 hPa West 11.3 km/h 24.1 km/h 86% 0 mm
22:19 1.2 °C -1 °C 1023.2 hPa West 11.3 km/h 24.1 km/h 85% 0 mm
22:24 1.2 °C -1.1 °C 1023.2 hPa West 11.3 km/h 24.1 km/h 85% 0 mm
22:29 1.1 °C -1.1 °C 1023.2 hPa West 11.3 km/h 25.7 km/h 85% 0 mm
22:34 1.1 °C -1.2 °C 1023.2 hPa West 11.3 km/h 25.7 km/h 85% 0 mm
22:39 1 °C -1.2 °C 1023.2 hPa West 9.7 km/h 24.1 km/h 85% 0 mm
22:44 1 °C -1.2 °C 1023.2 hPa West 19.3 km/h 19.3 km/h 85% 0 mm
22:49 0.9 °C -1.3 °C 1023.6 hPa SW 8 km/h 22.5 km/h 85% 0 mm
22:54 0.9 °C -1.3 °C 1023.9 hPa West 6.4 km/h 20.9 km/h 85% 0 mm
22:59 0.9 °C -1.3 °C 1023.9 hPa West 9.7 km/h 16.1 km/h 85% 0 mm
23:04 0.9 °C -1.3 °C 1023.9 hPa West 17.7 km/h 20.9 km/h 85% 0 mm
23:09 0.8 °C -1.2 °C 1023.9 hPa West 16.1 km/h 25.7 km/h 86% 0 mm
23:14 0.8 °C -1.2 °C 1024.3 hPa West 14.5 km/h 22.5 km/h 86% 0 mm
23:19 0.8 °C -1.3 °C 1024.3 hPa WSW 12.9 km/h 24.1 km/h 86% 0 mm
23:24 0.8 °C -1.3 °C 1024.3 hPa WSW 12.9 km/h 24.1 km/h 86% 0 mm
23:29 0.7 °C -1.3 °C 1024.3 hPa WSW 12.9 km/h 22.5 km/h 86% 0 mm
23:34 0.7 °C -1.3 °C 1024.6 hPa WSW 11.3 km/h 22.5 km/h 86% 0 mm
23:39 0.7 °C -1.3 °C 1024.6 hPa WSW 9.7 km/h 19.3 km/h 86% 0 mm
23:44 0.7 °C -1.4 °C 1024.6 hPa West 12.9 km/h 25.7 km/h 86% 0 mm
23:49 0.7 °C -1.4 °C 1024.6 hPa West 9.7 km/h 20.9 km/h 86% 0 mm
23:54 0.7 °C -1.4 °C 1024.6 hPa WSW 9.7 km/h 20.9 km/h 86% 0 mm
23:59 0.6 °C -1.6 °C 1024.6 hPa West 11.3 km/h 24.1 km/h 85% 0 mm
Buffalo, New York, USA
Compliments of Weather Underground - 2.5 mb